West Union, SC (29696)

8:01 PM EDT on July 22, 2017 (GMT -0400)
KJ4YLO Beaver Lake | | Change Station

Elev 1000 ft 34.82 °N, 83.02 °W | Updated 46 seconds ago

Clear
Clear
80.7 °F
Feels Like 86 °F
N
0.0
Wind Variable Wind from South
Gusts 0.0 mph

Today
High -- | Low -- °F
--% Chance of Precip.
Yesterday
High -- | Low -- °F
Precip. -- in
Pressure 29.92 in
Visibility 9.0 miles
Clouds Clear
Heat Index 86 °F
Dew Point 75 °F
Humidity 82%
Rainfall 0.00 in
Snow Depth Not available.
6:34 AM 8:41 PM
Waning Crescent, 0% visible
METAR KCEU 222354Z AUTO 30003KT 9SM CLR 27/26 A2995 RMK AO2 RAE00 TSE2256 SLP131 P0000 60016 T02720261 10356 20267 53002
Pressure 29.92 in
Visibility 9.0 miles
Clouds Clear
Heat Index 86 °F
Dew Point 75 °F
Humidity 82%
Rainfall 0.00 in
Snow Depth Not available.
6:34 AM 8:41 PM
Waning Crescent, 0% visible
METAR KCEU 222354Z AUTO 30003KT 9SM CLR 27/26 A2995 RMK AO2 RAE00 TSE2256 SLP131 P0000 60016 T02720261 10356 20267 53002

Get Severe Weather Alerts

Thanks for signing up!

Be on the lookout for a verification email in your inbox.

You'll start receiving the daily forecast at 6 AM.

×

10-Day Weather Forecast

Almanac

Astronomy

Jul. 22, 2017 Rise Set
Actual Time
Civil Twilight
Nautical Twilight
Astronomical Twilight
Moon
Length of Visible Light
Length of Day
Tomorrow will be .
, % of the Moon is Illuminated

Today's Extremes

State Highs State Lows

Community

WunderPhotos

Category 6

Welcome to Category 6. This is the collective home for Weather Underground's featured writeups by Dr. Jeff Masters (right), Bob Henson (left), Chris Burt, and other regular contributors.

Nearby

Air Quality

  Air Quality AQ Index Pollutant
Not available.

Snow Depth

Station Depth Elevation

Earthquake Activity

City Distance Mag. Time & Date
Minimum magnitude displayed is 2.5.

Coastal Water Temperatures

Place Temperature

Stations

Nearby Weather Stations

Station Location Temp. Windchill Dew Point Humidity Wind Precip. Elev Updated Type
                   

Watches & Warnings

There are currently no watches in effect.